Time;durP1;ratioP1;P1;durP2;ratioP2;P2;SDS_P1;SDS_P2;PMS_P1;PMS_P2;Temp;Humidity;BMP_temperature;BMP_pressure;BME280_temperature;BME280_humidity;BME280_pressure;Samples;Min_cycle;Max_cycle;Signal;HPM_P1;HPM_P2
2021/07/18 00:01:20;;;;;;;18.23;6.25;;;14.50;91.30;;;;;;5008788;28;20026;-68
2021/07/18 00:03:47;;;;;;;14.43;7.13;;;14.50;91.30;;;;;;5010042;28;20444;-67
2021/07/18 00:06:13;;;;;;;16.42;7.57;;;14.50;91.40;;;;;;5010170;28;20520;-67
2021/07/18 00:08:40;;;;;;;24.30;7.45;;;14.50;91.40;;;;;;5010555;28;20032;-68
2021/07/18 00:11:06;;;;;;;19.38;9.95;;;14.40;91.30;;;;;;5010524;28;20030;-68
2021/07/18 00:13:33;;;;;;;22.70;6.80;;;14.40;91.20;;;;;;5008353;28;20477;-68
2021/07/18 00:15:59;;;;;;;20.98;7.95;;;14.40;91.00;;;;;;5010242;28;20507;-68
2021/07/18 00:18:26;;;;;;;19.48;6.82;;;14.40;90.80;;;;;;5017984;28;20744;-68
2021/07/18 00:20:52;;;;;;;24.80;7.63;;;14.40;90.70;;;;;;5011473;28;20373;-68
2021/07/18 00:23:19;;;;;;;15.43;6.10;;;14.30;90.60;;;;;;5012657;28;20049;-68
2021/07/18 00:25:46;;;;;;;14.35;6.00;;;14.30;90.70;;;;;;5015349;28;20034;-68
2021/07/18 00:28:12;;;;;;;18.00;6.75;;;14.30;90.60;;;;;;5011144;28;20038;-68
2021/07/18 00:30:39;;;;;;;23.05;7.00;;;14.20;90.60;;;;;;5013132;28;20028;-68
2021/07/18 00:33:06;;;;;;;14.63;6.55;;;14.20;90.60;;;;;;5011093;28;21023;-68
2021/07/18 00:35:34;;;;;;;15.60;7.25;;;14.20;90.50;;;;;;5014259;28;20385;-68
2021/07/18 00:38:00;;;;;;;17.42;5.80;;;14.10;90.50;;;;;;5012198;28;20029;-68
2021/07/18 00:40:27;;;;;;;16.17;5.93;;;14.10;90.60;;;;;;5016683;28;20021;-68
2021/07/18 00:42:53;;;;;;;18.23;6.68;;;14.10;90.50;;;;;;5012628;28;20011;-68
2021/07/18 00:45:20;;;;;;;19.45;7.15;;;14.10;90.60;;;;;;5012482;28;20021;-68
2021/07/18 00:47:47;;;;;;;17.85;6.38;;;14.00;90.50;;;;;;5014372;28;20022;-68
2021/07/18 00:50:16;;;;;;;19.50;7.60;;;14.00;90.40;;;;;;5012252;28;20041;-68
2021/07/18 00:52:43;;;;;;;13.75;6.63;;;14.00;90.30;;;;;;5013151;28;20026;-68
2021/07/18 00:55:11;;;;;;;16.02;6.65;;;14.00;90.30;;;;;;5013330;28;20490;-68
2021/07/18 00:57:38;;;;;;;15.90;6.13;;;14.00;90.30;;;;;;5012597;28;20133;-68
2021/07/18 01:00:08;;;;;;;17.45;7.22;;;14.00;90.40;;;;;;5012393;28;20091;-68
2021/07/18 01:02:36;;;;;;;13.23;5.20;;;14.00;90.30;;;;;;5013184;28;20489;-68
2021/07/18 01:05:05;;;;;;;20.48;6.75;;;13.90;90.10;;;;;;5015799;28;20029;-68
2021/07/18 01:07:32;;;;;;;17.42;5.43;;;13.90;90.00;;;;;;5011693;28;20067;-68
2021/07/18 01:09:58;;;;;;;12.05;6.82;;;13.80;90.00;;;;;;5012509;28;20005;-67
2021/07/18 01:12:25;;;;;;;14.18;5.75;;;13.80;90.10;;;;;;5014216;28;20079;-68
2021/07/18 01:14:52;;;;;;;8.05;5.05;;;13.80;90.00;;;;;;5015903;28;20026;-68
2021/07/18 01:17:18;;;;;;;11.85;6.28;;;13.80;89.70;;;;;;5010196;28;20418;-68
2021/07/18 01:19:45;;;;;;;13.10;4.70;;;13.70;89.20;;;;;;5012568;28;20026;-68
2021/07/18 01:22:12;;;;;;;12.98;5.30;;;13.70;88.70;;;;;;5015273;28;20010;-68
2021/07/18 01:24:38;;;;;;;11.88;4.65;;;13.60;88.00;;;;;;5013718;28;20394;-68
2021/07/18 01:27:05;;;;;;;8.55;4.38;;;13.60;87.90;;;;;;5012280;28;20042;-68
2021/07/18 01:29:34;;;;;;;5.00;4.43;;;13.50;87.80;;;;;;5009818;28;20117;-68
2021/07/18 01:32:01;;;;;;;8.38;4.80;;;13.50;87.70;;;;;;5011842;28;20171;-68
2021/07/18 01:34:28;;;;;;;8.65;3.85;;;13.50;87.40;;;;;;5013386;28;20046;-68
2021/07/18 01:37:34;;;;;;;6.85;4.40;;;13.50;87.10;;;;;;5003637;28;20550;-68
2021/07/18 01:40:01;;;;;;;8.48;4.55;;;13.40;86.70;;;;;;5011496;28;20113;-68
2021/07/18 01:42:27;;;;;;;4.25;3.85;;;13.40;86.30;;;;;;5011728;28;20117;-68
2021/07/18 01:45:33;;;;;;;6.28;5.05;;;13.30;86.00;;;;;;5012965;28;20025;-68
2021/07/18 01:48:40;;;;;;;7.57;4.90;;;13.30;85.90;;;;;;5013670;28;20034;-68
2021/07/18 01:51:46;;;;;;;7.65;5.38;;;13.20;85.90;;;;;;5009427;28;20044;-68
2021/07/18 01:54:52;;;;;;;7.45;4.55;;;13.20;85.60;;;;;;5013426;28;20493;-68
2021/07/18 01:57:58;;;;;;;9.25;4.63;;;13.20;85.40;;;;;;5010619;28;20025;-68
2021/07/18 02:01:04;;;;;;;7.95;5.32;;;13.20;85.40;;;;;;5009936;28;20098;-68
2021/07/18 02:04:10;;;;;;;4.32;3.90;;;13.10;85.30;;;;;;5009112;28;20022;-68
2021/07/18 02:07:19;;;;;;;5.93;4.03;;;13.00;85.20;;;;;;5015334;28;20040;-67
2021/07/18 02:10:25;;;;;;;8.15;4.65;;;13.00;85.50;;;;;;5012848;28;20087;-68
2021/07/18 02:13:32;;;;;;;5.95;3.95;;;13.00;85.70;;;;;;5009875;28;20120;-68
2021/07/18 02:16:38;;;;;;;8.07;4.78;;;12.90;85.60;;;;;;5010720;28;20026;-68
2021/07/18 02:19:49;;;;;;;7.35;4.43;;;12.90;85.50;;;;;;5011822;28;20421;-68
2021/07/18 02:23:04;;;;;;;6.82;4.15;;;12.90;85.30;;;;;;5011175;28;20440;-68
2021/07/18 02:26:10;;;;;;;7.82;5.00;;;12.80;85.20;;;;;;5012836;28;20524;-68
2021/07/18 02:29:16;;;;;;;5.97;4.15;;;12.80;84.80;;;;;;5012485;28;20030;-68
2021/07/18 02:32:22;;;;;;;7.32;4.07;;;12.80;85.10;;;;;;5010984;28;20033;-68
2021/07/18 02:35:28;;;;;;;9.23;4.80;;;12.70;84.90;;;;;;5009585;28;20061;-68
2021/07/18 02:37:55;;;;;;;7.43;4.25;;;12.70;84.90;;;;;;5008041;28;20121;-68
2021/07/18 02:40:23;;;;;;;7.65;4.18;;;12.70;85.00;;;;;;5012448;28;20437;-68
2021/07/18 02:42:50;;;;;;;7.00;2.97;;;12.60;85.00;;;;;;5009910;28;20029;-68
2021/07/18 02:45:20;;;;;;;7.50;3.53;;;12.60;85.00;;;;;;5012569;28;20405;-68
2021/07/18 02:47:48;;;;;;;7.80;3.15;;;12.60;85.40;;;;;;5008740;28;20050;-68
2021/07/18 02:50:17;;;;;;;7.30;2.70;;;12.60;84.80;;;;;;5012504;28;20512;-68
2021/07/18 02:52:44;;;;;;;6.07;3.03;;;12.60;84.40;;;;;;5010827;28;20032;-68
2021/07/18 02:55:12;;;;;;;7.60;3.35;;;12.50;84.40;;;;;;5010506;28;20070;-68
2021/07/18 02:57:38;;;;;;;3.03;2.15;;;12.50;84.40;;;;;;5008943;28;20045;-68
2021/07/18 03:00:08;;;;;;;3.17;2.47;;;12.50;84.30;;;;;;5010995;28;20448;-67
2021/07/18 03:02:34;;;;;;;10.45;7.15;;;12.50;84.20;;;;;;5010339;28;20032;-68
2021/07/18 03:05:01;;;;;;;24.25;14.23;;;12.50;84.20;;;;;;5009443;28;20037;-68
2021/07/18 03:07:28;;;;;;;10.38;8.15;;;12.50;84.40;;;;;;5012212;28;20044;-68
2021/07/18 03:09:54;;;;;;;7.72;4.45;;;12.40;84.30;;;;;;5011680;28;20516;-69
2021/07/18 03:12:21;;;;;;;7.53;4.45;;;12.40;84.30;;;;;;5011109;28;20389;-68
2021/07/18 03:14:47;;;;;;;7.50;5.25;;;12.40;84.30;;;;;;5013054;28;20385;-68
2021/07/18 03:17:14;;;;;;;9.43;6.45;;;12.40;84.30;;;;;;5010891;28;20521;-69
2021/07/18 03:19:40;;;;;;;13.38;7.70;;;12.40;84.20;;;;;;5012486;28;20032;-68
2021/07/18 03:22:07;;;;;;;9.70;8.77;;;12.40;84.00;;;;;;5009794;28;20021;-68
2021/07/18 03:24:33;;;;;;;11.77;10.38;;;12.40;83.60;;;;;;5012560;28;20040;-68
2021/07/18 03:27:00;;;;;;;12.35;10.05;;;12.40;84.50;;;;;;5010505;28;20362;-68
2021/07/18 03:29:26;;;;;;;13.63;12.27;;;12.30;83.80;;;;;;5010656;28;20049;-71
2021/07/18 03:31:53;;;;;;;12.85;11.55;;;12.30;83.90;;;;;;5010470;28;20018;-78
2021/07/18 03:34:19;;;;;;;15.27;12.45;;;12.30;83.90;;;;;;5011308;28;20053;-69
2021/07/18 03:36:46;;;;;;;66.55;51.53;;;12.20;83.70;;;;;;5009637;28;20365;-69
2021/07/18 03:39:12;;;;;;;34.33;27.00;;;12.20;84.00;;;;;;5010527;28;20490;-69
2021/07/18 03:41:39;;;;;;;24.55;18.90;;;12.20;83.90;;;;;;5008036;28;20412;-68
2021/07/18 03:44:05;;;;;;;11.73;10.63;;;12.20;83.50;;;;;;5011160;28;20370;-69
2021/07/18 03:46:32;;;;;;;7.88;7.07;;;12.10;83.30;;;;;;5011138;28;20033;-68
2021/07/18 03:48:59;;;;;;;8.43;5.75;;;12.10;83.40;;;;;;5009411;28;20012;-68
2021/07/18 03:51:25;;;;;;;5.05;4.25;;;12.00;83.60;;;;;;5007667;28;20021;-66
2021/07/18 03:53:52;;;;;;;6.72;4.57;;;12.00;83.20;;;;;;5011146;28;20030;-67
2021/07/18 03:56:22;;;;;;;8.18;4.90;;;11.90;83.40;;;;;;5011274;28;20116;-66
2021/07/18 03:58:49;;;;;;;4.65;3.63;;;12.00;84.10;;;;;;5012992;28;20029;-69
2021/07/18 04:01:16;;;;;;;7.50;3.83;;;11.90;83.10;;;;;;5009037;28;20014;-66
2021/07/18 04:03:46;;;;;;;4.40;3.97;;;12.00;83.00;;;;;;5012158;28;20025;-66
2021/07/18 04:06:14;;;;;;;7.03;3.40;;;11.90;82.90;;;;;;5009605;28;20495;-66
2021/07/18 04:08:41;;;;;;;6.05;3.83;;;11.90;82.90;;;;;;5008634;28;20358;-69
2021/07/18 04:11:08;;;;;;;5.60;3.30;;;11.90;82.80;;;;;;5011390;28;20096;-66
2021/07/18 04:13:35;;;;;;;6.43;3.80;;;11.90;82.80;;;;;;5010033;28;20018;-69
2021/07/18 04:16:02;;;;;;;3.10;2.70;;;11.90;83.00;;;;;;5010299;28;20564;-66
2021/07/18 04:18:29;;;;;;;4.07;3.63;;;11.80;82.70;;;;;;5011889;28;20038;-69
2021/07/18 04:20:55;;;;;;;5.00;3.35;;;11.80;82.70;;;;;;5012651;28;20024;-69
2021/07/18 04:23:22;;;;;;;4.22;3.47;;;11.80;82.80;;;;;;5009428;28;20596;-69
2021/07/18 04:25:48;;;;;;;7.15;3.03;;;11.80;82.50;;;;;;5012080;28;20429;-68
2021/07/18 04:28:15;;;;;;;7.82;3.13;;;11.70;82.30;;;;;;5009445;28;20092;-69
2021/07/18 04:30:42;;;;;;;5.50;3.33;;;11.80;82.30;;;;;;5009696;28;20661;-66
2021/07/18 04:33:09;;;;;;;6.03;2.63;;;11.80;82.30;;;;;;5010427;28;20029;-67
2021/07/18 04:35:36;;;;;;;6.30;3.63;;;11.70;82.10;;;;;;5007820;28;20124;-67
2021/07/18 04:38:03;;;;;;;6.07;2.90;;;11.70;82.20;;;;;;5010160;28;20018;-67
2021/07/18 04:40:34;;;;;;;3.20;2.90;;;11.70;82.00;;;;;;5008693;28;20018;-67
2021/07/18 04:43:01;;;;;;;4.65;2.88;;;11.70;82.20;;;;;;5008234;28;20569;-67
2021/07/18 04:45:28;;;;;;;4.78;3.40;;;11.70;82.30;;;;;;5011637;28;20543;-67
2021/07/18 04:48:34;;;;;;;6.38;3.55;;;11.70;82.10;;;;;;5010819;28;20037;-67
2021/07/18 04:51:40;;;;;;;6.72;3.53;;;11.60;82.10;;;;;;5011039;28;20171;-68
2021/07/18 04:54:46;;;;;;;12.70;9.07;;;11.60;82.00;;;;;;5010025;28;20022;-67
2021/07/18 04:57:13;;;;;;;21.38;13.75;;;11.60;82.20;;;;;;5007563;28;20022;-67
2021/07/18 04:59:39;;;;;;;15.32;9.13;;;11.50;82.50;;;;;;5009269;28;20068;-68
2021/07/18 05:02:06;;;;;;;9.43;6.72;;;11.60;82.70;;;;;;5010438;28;20029;-66
2021/07/18 05:05:12;;;;;;;11.57;8.75;;;11.60;82.60;;;;;;5014605;28;20026;-66
2021/07/18 05:08:33;;;;;;;14.00;11.32;;;11.50;82.40;;;;;;5011091;28;20121;-67
2021/07/18 05:11:39;;;;;;;13.27;10.80;;;11.50;82.50;;;;;;5013025;28;20022;-66
2021/07/18 05:14:46;;;;;;;10.27;9.25;;;11.50;82.40;;;;;;5011109;28;20580;-66
2021/07/18 05:17:52;;;;;;;8.60;6.65;;;11.40;82.00;;;;;;5013761;28;20488;-67
2021/07/18 05:20:58;;;;;;;7.32;4.90;;;11.40;82.00;;;;;;5013634;28;20488;-67
2021/07/18 05:24:04;;;;;;;10.13;4.67;;;11.40;81.80;;;;;;5011596;28;20026;-67
2021/07/18 05:27:10;;;;;;;6.63;2.20;;;11.40;82.10;;;;;;5011723;28;20285;-67
2021/07/18 05:30:16;;;;;;;3.37;2.40;;;11.30;82.20;;;;;;5011818;28;21096;-67
2021/07/18 05:33:22;;;;;;;6.60;3.15;;;11.20;82.40;;;;;;5010646;28;20080;-68
2021/07/18 05:36:28;;;;;;;5.03;1.98;;;11.20;82.60;;;;;;5013118;28;20101;-68
2021/07/18 05:39:34;;;;;;;7.47;3.40;;;11.30;82.90;;;;;;5013825;28;20026;-67
2021/07/18 05:42:40;;;;;;;6.68;2.95;;;11.30;82.40;;;;;;5009292;28;20413;-66
2021/07/18 05:45:46;;;;;;;59.83;36.40;;;11.30;83.10;;;;;;5012399;28;20787;-67
2021/07/18 05:48:52;;;;;;;23.40;17.08;;;11.30;82.60;;;;;;5012671;28;20053;-65
2021/07/18 05:51:58;;;;;;;11.98;7.57;;;11.20;82.40;;;;;;5011609;28;20026;-66
2021/07/18 05:54:25;;;;;;;15.90;7.93;;;11.20;82.00;;;;;;5011658;28;20377;-67
2021/07/18 05:56:51;;;;;;;12.43;6.60;;;11.20;82.00;;;;;;5013761;28;20345;-66
2021/07/18 05:59:18;;;;;;;10.18;4.90;;;11.20;82.10;;;;;;5013017;28;20022;-66
2021/07/18 06:01:44;;;;;;;6.63;5.20;;;11.10;82.30;;;;;;5011874;28;20022;-65
2021/07/18 06:04:11;;;;;;;9.10;4.28;;;11.10;82.30;;;;;;5010824;28;20030;-65
2021/07/18 06:07:17;;;;;;;9.13;5.30;;;11.20;82.50;;;;;;5008213;28;20474;-63
2021/07/18 06:10:25;;;;;;;38.95;23.50;;;11.10;82.80;;;;;;5009055;28;20026;-66
2021/07/18 06:13:31;;;;;;;6.63;4.75;;;11.10;83.10;;;;;;5010389;28;20117;-64
2021/07/18 06:16:37;;;;;;;10.45;3.28;;;11.10;83.10;;;;;;5009445;28;20425;-65
2021/07/18 06:19:04;;;;;;;5.63;3.15;;;11.10;83.80;;;;;;5009921;28;20517;-66
2021/07/18 06:21:30;;;;;;;5.15;3.65;;;11.20;84.10;;;;;;5009269;28;20032;-69
2021/07/18 06:23:57;;;;;;;5.95;2.90;;;11.20;84.30;;;;;;5012120;28;20548;-64
2021/07/18 06:26:23;;;;;;;8.95;3.13;;;11.20;84.40;;;;;;5014739;28;20404;-66
2021/07/18 06:28:50;;;;;;;6.82;3.15;;;11.20;84.60;;;;;;5009595;28;20118;-68
2021/07/18 06:31:16;;;;;;;5.45;3.05;;;11.20;84.90;;;;;;5010002;28;20048;-66
2021/07/18 06:33:45;;;;;;;8.30;2.92;;;11.20;85.10;;;;;;5009951;28;20041;-69
2021/07/18 06:36:13;;;;;;;5.78;3.25;;;11.30;85.30;;;;;;5007778;28;20037;-67
2021/07/18 06:38:39;;;;;;;10.77;3.90;;;11.30;85.30;;;;;;5009238;28;20022;-66
2021/07/18 06:41:46;;;;;;;7.90;3.25;;;11.30;85.80;;;;;;5008151;28;20442;-66
2021/07/18 06:44:52;;;;;;;7.35;3.53;;;11.30;85.80;;;;;;5009192;28;20048;-70
2021/07/18 06:47:58;;;;;;;9.18;3.67;;;11.40;86.30;;;;;;5010932;28;20481;-65
2021/07/18 06:51:04;;;;;;;11.13;4.13;;;11.40;86.40;;;;;;5010729;28;20033;-65
2021/07/18 06:54:10;;;;;;;6.63;3.83;;;11.50;86.60;;;;;;5008376;28;20018;-66
2021/07/18 06:57:17;;;;;;;8.30;4.13;;;11.50;87.00;;;;;;5012900;28;20049;-66
2021/07/18 07:00:23;;;;;;;8.50;3.45;;;11.60;87.10;;;;;;5011039;28;20271;-68
2021/07/18 07:03:29;;;;;;;9.30;3.78;;;11.60;87.30;;;;;;5010628;28;20486;-66
2021/07/18 07:06:35;;;;;;;9.40;4.22;;;11.70;87.60;;;;;;5009311;28;20500;-67
2021/07/18 07:09:41;;;;;;;8.90;3.72;;;11.70;87.70;;;;;;5009664;28;20032;-66
2021/07/18 07:12:48;;;;;;;13.45;4.22;;;11.70;87.90;;;;;;5006978;28;20033;-66
2021/07/18 07:15:54;;;;;;;16.73;12.48;;;11.80;88.50;;;;;;5012681;28;20708;-66
2021/07/18 07:18:21;;;;;;;27.48;17.70;;;11.90;88.70;;;;;;5013524;28;20073;-65
2021/07/18 07:20:47;;;;;;;43.75;15.30;;;11.90;88.70;;;;;;5010466;28;20370;-71
2021/07/18 07:23:53;;;;;;;19.35;9.30;;;12.00;88.70;;;;;;5012648;28;20029;-67
2021/07/18 07:26:59;;;;;;;14.05;6.47;;;12.00;88.80;;;;;;5012219;28;20574;-68
2021/07/18 07:30:05;;;;;;;17.83;6.43;;;12.10;89.00;;;;;;5008267;28;20096;-68
2021/07/18 07:33:12;;;;;;;7.07;5.20;;;12.20;89.20;;;;;;5010424;28;20022;-69
2021/07/18 07:36:18;;;;;;;9.43;6.18;;;12.30;89.50;;;;;;5012395;28;20025;-71
2021/07/18 07:39:24;;;;;;;22.13;11.68;;;12.30;89.70;;;;;;5010172;28;20025;-69
2021/07/18 07:41:51;;;;;;;19.15;16.60;;;12.40;90.10;;;;;;5007588;28;20408;-68
2021/07/18 07:44:57;;;;;;;32.20;24.33;;;12.50;90.20;;;;;;5013592;28;20030;-70
2021/07/18 07:48:03;;;;;;;31.35;20.05;;;12.60;90.30;;;;;;5010856;28;20033;-73
2021/07/18 07:51:09;;;;;;;16.33;10.05;;;12.70;90.50;;;;;;5012515;28;20024;-67
2021/07/18 07:54:15;;;;;;;18.70;10.02;;;12.80;90.50;;;;;;5009864;28;20014;-68
2021/07/18 07:56:42;;;;;;;12.77;6.97;;;12.90;90.80;;;;;;5009275;28;20022;-69
2021/07/18 07:59:09;;;;;;;11.07;7.38;;;12.90;90.90;;;;;;5011508;28;20195;-69
2021/07/18 08:01:35;;;;;;;11.15;6.43;;;13.00;91.20;;;;;;5008827;28;20567;-67
2021/07/18 08:04:02;;;;;;;13.95;6.78;;;13.10;91.20;;;;;;5007661;28;20555;-67
2021/07/18 08:06:28;;;;;;;12.13;7.07;;;13.10;91.40;;;;;;5011593;28;20477;-66
2021/07/18 08:08:55;;;;;;;14.27;6.70;;;13.20;91.50;;;;;;5010445;28;20017;-68
2021/07/18 08:11:21;;;;;;;9.57;6.60;;;13.30;91.50;;;;;;5012796;28;20028;-68
2021/07/18 08:13:48;;;;;;;12.00;8.02;;;13.30;91.70;;;;;;5011828;28;20022;-66
2021/07/18 08:16:14;;;;;;;10.82;7.53;;;13.40;91.50;;;;;;5009879;28;20029;-68
2021/07/18 08:19:20;;;;;;;14.00;7.47;;;13.50;91.60;;;;;;5010113;28;20042;-71
2021/07/18 08:21:47;;;;;;;14.48;8.25;;;13.60;91.30;;;;;;5008375;28;20030;-69
2021/07/18 08:24:14;;;;;;;17.02;9.18;;;13.60;91.20;;;;;;5011345;28;20504;-69
2021/07/18 08:26:40;;;;;;;15.73;9.82;;;13.70;91.20;;;;;;5011621;28;20065;-68
2021/07/18 08:29:07;;;;;;;94.20;71.82;;;13.70;91.30;;;;;;5012476;28;20030;-68
2021/07/18 08:31:34;;;;;;;31.88;22.02;;;13.80;91.50;;;;;;5009661;28;20017;-67
2021/07/18 08:34:01;;;;;;;29.33;18.50;;;13.90;91.80;;;;;;5010723;28;20493;-67
2021/07/18 08:36:27;;;;;;;41.25;18.30;;;14.00;91.70;;;;;;5011368;28;20026;-66
2021/07/18 08:38:54;;;;;;;16.48;13.35;;;14.10;91.70;;;;;;5012271;28;20022;-68
2021/07/18 08:41:22;;;;;;;15.98;12.60;;;14.20;91.70;;;;;;5015354;28;20026;-68
2021/07/18 08:44:28;;;;;;;22.33;16.60;;;14.20;91.60;;;;;;5014117;28;20026;-68
2021/07/18 08:47:34;;;;;;;18.48;13.90;;;14.40;92.30;;;;;;5015600;28;20416;-68
2021/07/18 08:50:40;;;;;;;16.75;14.32;;;14.50;91.30;;;;;;5014508;28;20057;-68
2021/07/18 08:53:46;;;;;;;26.73;18.52;;;14.60;91.20;;;;;;5015333;28;20485;-68
2021/07/18 08:56:52;;;;;;;54.30;48.40;;;14.70;90.50;;;;;;5014155;28;20061;-72
2021/07/18 08:59:58;;;;;;;35.33;28.52;;;14.80;90.00;;;;;;5013332;28;20022;-72
2021/07/18 09:03:04;;;;;;;18.63;12.60;;;14.90;88.50;;;;;;5012412;28;20484;-70
2021/07/18 09:05:31;;;;;;;11.52;10.20;;;15.00;88.30;;;;;;5011122;28;20029;-70
2021/07/18 09:07:58;;;;;;;10.55;8.63;;;15.10;87.40;;;;;;5010873;28;20046;-71
2021/07/18 09:10:27;;;;;;;14.73;8.18;;;15.20;86.50;;;;;;5016442;28;20066;-73
2021/07/18 09:13:12;;;;;;;9.35;7.20;;;15.30;86.70;;;;;;5013650;28;20475;-69
2021/07/18 09:15:39;;;;;;;8.00;7.20;;;15.50;86.50;;;;;;5010902;28;20034;-73
2021/07/18 09:18:13;;;;;;;16.67;6.85;;;15.50;87.90;;;;;;5013987;28;20038;-73
2021/07/18 09:20:42;;;;;;;9.48;7.00;;;15.60;86.80;;;;;;5016329;28;20048;-71
2021/07/18 09:23:11;;;;;;;7.60;6.43;;;15.80;88.70;;;;;;5016968;28;20026;-69
2021/07/18 09:25:37;;;;;;;7.60;5.95;;;16.00;89.10;;;;;;5012697;28;20018;-69
2021/07/18 09:28:18;;;;;;;11.98;6.18;;;16.20;89.20;;;;;;5011640;28;20034;-70
2021/07/18 09:30:45;;;;;;;6.80;4.50;;;16.40;86.10;;;;;;5013213;28;20061;-70
2021/07/18 09:33:27;;;;;;;7.05;4.45;;;16.50;85.50;;;;;;5014473;28;20365;-72
2021/07/18 09:36:13;;;;;;;4.60;2.92;;;16.80;83.80;;;;;;5016338;28;20025;-72
2021/07/18 09:39:03;;;;;;;2.97;1.98;;;17.00;74.20;;;;;;5014088;28;20488;-69
2021/07/18 09:41:35;;;;;;;6.13;1.88;;;17.50;67.10;;;;;;5011131;28;20049;-70
2021/07/18 09:44:02;;;;;;;8.25;2.30;;;17.80;67.00;;;;;;5012091;28;20026;-70
2021/07/18 09:46:33;;;;;;;2.20;1.38;;;18.10;62.80;;;;;;5010940;28;20033;-70
2021/07/18 09:49:04;;;;;;;3.88;1.70;;;18.30;61.10;;;;;;5012275;28;20525;-70
2021/07/18 09:51:31;;;;;;;12.45;9.43;;;18.50;62.70;;;;;;5011710;28;20026;-70
2021/07/18 09:54:10;;;;;;;21.80;14.93;;;18.70;58.30;;;;;;5013038;28;20541;-69
2021/07/18 09:56:37;;;;;;;3.58;2.75;;;18.80;60.50;;;;;;5011472;28;20026;-70
2021/07/18 09:59:05;;;;;;;2.53;1.30;;;18.90;57.00;;;;;;5013444;28;20048;-70
2021/07/18 10:01:33;;;;;;;1.25;1.15;;;19.20;55.30;;;;;;5019837;28;20030;-70
2021/07/18 10:04:01;;;;;;;3.70;1.48;;;19.40;51.70;;;;;;5012395;28;20022;-70
2021/07/18 10:06:30;;;;;;;1.80;1.20;;;19.50;54.10;;;;;;5015476;28;20116;-70
2021/07/18 10:08:58;;;;;;;3.50;1.60;;;19.50;50.70;;;;;;5011756;28;20014;-70
2021/07/18 10:11:27;;;;;;;1.27;0.80;;;19.60;51.90;;;;;;5012835;28;20026;-70
2021/07/18 10:13:56;;;;;;;1.23;1.13;;;19.70;50.50;;;;;;5013231;28;20027;-70
2021/07/18 10:16:24;;;;;;;1.73;0.95;;;19.90;48.80;;;;;;5014790;28;20050;-70
2021/07/18 10:18:52;;;;;;;39.05;35.15;;;20.10;49.20;;;;;;5011457;28;20042;-70
2021/07/18 10:21:21;;;;;;;54.58;42.35;;;20.30;47.90;;;;;;5010632;28;20037;-71
2021/07/18 10:23:50;;;;;;;26.30;15.40;;;20.40;43.10;;;;;;5013963;28;20032;-70
2021/07/18 10:26:18;;;;;;;3.00;1.85;;;20.50;45.50;;;;;;5014453;28;20038;-74
2021/07/18 10:28:46;;;;;;;14.20;12.50;;;20.70;44.20;;;;;;5011247;28;20401;-71
2021/07/18 10:31:28;;;;;;;3.75;3.03;;;20.80;44.60;;;;;;5013832;28;20445;-73
2021/07/18 10:33:59;;;;;;;187.32;167.18;;;21.00;47.70;;;;;;5016478;28;20029;-72
2021/07/18 10:36:26;;;;;;;152.73;136.63;;;21.10;47.90;;;;;;5010535;28;20476;-71
2021/07/18 10:38:53;;;;;;;41.78;28.85;;;21.20;46.10;;;;;;5010694;28;20109;-70
2021/07/18 10:41:52;;;;;;;6.70;4.22;;;21.40;48.20;;;;;;5015097;28;20071;-71
2021/07/18 10:44:19;;;;;;;4.30;1.98;;;21.40;47.90;;;;;;5007842;28;20030;-71
2021/07/18 10:46:45;;;;;;;3.22;1.48;;;21.50;48.40;;;;;;5011374;28;20485;-71
2021/07/18 10:49:14;;;;;;;2.10;1.40;;;21.50;45.90;;;;;;5014067;28;20030;-71
2021/07/18 10:51:51;;;;;;;1.98;1.33;;;21.60;43.60;;;;;;5007757;28;20032;-71
2021/07/18 10:54:19;;;;;;;3.25;0.88;;;21.70;43.60;;;;;;5015445;28;20097;-71
2021/07/18 10:56:49;;;;;;;0.63;0.63;;;21.70;41.30;;;;;;5011606;28;20020;-72
2021/07/18 10:59:34;;;;;;;2.17;1.10;;;21.80;41.00;;;;;;5011280;28;20369;-72
2021/07/18 11:02:18;;;;;;;1.95;1.40;;;21.90;42.10;;;;;;5012160;28;20485;-72
2021/07/18 11:04:50;;;;;;;2.10;1.20;;;22.00;41.30;;;;;;5010705;28;20014;-72
2021/07/18 11:07:33;;;;;;;1.73;1.10;;;22.10;41.30;;;;;;5019072;28;20488;-71
2021/07/18 11:10:10;;;;;;;58.22;51.97;;;22.10;40.80;;;;;;5012300;28;20025;-71
2021/07/18 11:12:38;;;;;;;8.55;6.15;;;22.30;40.70;;;;;;5011153;28;20018;-72
2021/07/18 11:15:17;;;;;;;2.17;1.98;;;22.40;40.70;;;;;;5008451;28;20021;-72
2021/07/18 11:18:02;;;;;;;6.40;1.33;;;22.40;40.70;;;;;;5008641;28;20037;-72
2021/07/18 11:20:42;;;;;;;3.83;1.58;;;22.50;40.40;;;;;;5011881;28;20386;-71
2021/07/18 11:23:20;;;;;;;2.10;1.40;;;22.60;40.30;;;;;;5009866;28;20500;-71
2021/07/18 11:25:52;;;;;;;1.30;1.20;;;22.60;41.10;;;;;;5010158;28;20087;-72
2021/07/18 11:28:35;;;;;;;1.48;1.08;;;22.70;41.00;;;;;;5008965;28;20129;-71
2021/07/18 11:31:11;;;;;;;4.70;1.58;;;22.80;41.50;;;;;;5004938;28;20037;-71
2021/07/18 11:33:44;;;;;;;1.38;1.27;;;22.80;41.50;;;;;;5008871;28;20040;-70
2021/07/18 11:36:16;;;;;;;103.53;92.07;;;22.90;41.40;;;;;;5010654;28;20037;-72
2021/07/18 11:38:42;;;;;;;4.45;3.00;;;23.00;41.80;;;;;;5010529;28;20438;-67
2021/07/18 11:41:41;;;;;;;2.78;1.77;;;23.10;40.80;;;;;;5010567;28;20030;-68
2021/07/18 11:44:09;;;;;;;3.72;1.27;;;23.10;41.40;;;;;;5016315;28;20096;-67
2021/07/18 11:46:48;;;;;;;2.70;1.38;;;23.20;41.30;;;;;;5011912;28;20092;-67
2021/07/18 11:49:17;;;;;;;2.75;1.70;;;23.20;42.20;;;;;;5010692;28;20089;-68
2021/07/18 11:51:48;;;;;;;2.13;1.65;;;23.20;41.80;;;;;;5011817;28;20079;-69
2021/07/18 11:54:16;;;;;;;2.88;1.38;;;23.30;41.60;;;;;;5012195;28;20018;-67
2021/07/18 11:56:45;;;;;;;3.17;1.58;;;23.30;42.90;;;;;;5009194;28;20127;-68
2021/07/18 11:59:13;;;;;;;3.90;1.70;;;23.40;43.40;;;;;;5012864;28;20049;-67
2021/07/18 12:01:42;;;;;;;3.60;1.45;;;23.50;42.80;;;;;;5008675;28;20365;-67
2021/07/18 12:04:24;;;;;;;1.27;1.17;;;23.50;43.20;;;;;;5016036;28;20492;-66
2021/07/18 12:07:03;;;;;;;4.97;1.63;;;23.50;43.40;;;;;;5013055;28;20041;-70
2021/07/18 12:09:32;;;;;;;3.03;1.55;;;23.60;43.10;;;;;;5010156;28;20103;-66
2021/07/18 12:12:00;;;;;;;2.15;1.55;;;23.60;42.60;;;;;;5010933;28;20517;-67
2021/07/18 12:14:34;;;;;;;3.25;1.60;;;23.60;43.10;;;;;;5012754;28;20523;-71
2021/07/18 12:17:04;;;;;;;20.95;18.55;;;23.70;43.00;;;;;;5017273;28;20497;-68
2021/07/18 12:19:32;;;;;;;7.53;6.05;;;23.70;41.70;;;;;;5014011;28;20100;-68
2021/07/18 12:22:01;;;;;;;2.97;1.58;;;23.70;41.60;;;;;;5016296;28;20021;-67
2021/07/18 12:24:31;;;;;;;8.27;3.38;;;23.80;41.20;;;;;;5016802;28;20010;-66
2021/07/18 12:27:05;;;;;;;20.60;9.60;;;23.80;41.10;;;;;;5013734;28;20401;-66
2021/07/18 12:29:36;;;;;;;2.70;2.50;;;23.80;42.90;;;;;;5016396;28;20029;-66
2021/07/18 12:32:04;;;;;;;6.68;5.03;;;23.80;42.60;;;;;;5013998;28;20495;-67
2021/07/18 12:34:42;;;;;;;16.05;13.77;;;23.70;42.10;;;;;;5015931;28;20773;-67
2021/07/18 12:37:18;;;;;;;8.43;5.72;;;23.80;42.00;;;;;;5013400;28;20070;-68
2021/07/18 12:39:47;;;;;;;12.00;10.60;;;23.80;41.90;;;;;;5013951;28;20006;-67
2021/07/18 12:42:23;;;;;;;18.17;12.88;;;23.80;42.10;;;;;;5018416;28;20033;-66
2021/07/18 12:44:53;;;;;;;7.95;5.75;;;23.80;43.10;;;;;;5014349;28;20103;-66
2021/07/18 12:47:19;;;;;;;32.80;26.23;;;23.90;43.30;;;;;;5012118;28;20045;-67
2021/07/18 12:50:08;;;;;;;22.17;14.25;;;23.90;43.00;;;;;;5014801;28;20485;-67
2021/07/18 12:52:50;;;;;;;8.75;4.90;;;23.90;43.60;;;;;;5016319;28;20022;-67
2021/07/18 12:55:26;;;;;;;5.30;3.47;;;23.90;43.30;;;;;;5015850;28;20046;-70
2021/07/18 12:57:53;;;;;;;6.15;2.22;;;23.90;43.30;;;;;;5013791;28;20028;-68
2021/07/18 13:00:26;;;;;;;2.92;2.25;;;23.90;43.90;;;;;;5018535;28;20033;-67
2021/07/18 13:03:13;;;;;;;5.25;1.60;;;23.90;44.00;;;;;;5014337;28;20022;-66
2021/07/18 13:05:41;;;;;;;4.97;1.95;;;23.90;44.70;;;;;;5013873;28;20500;-67
2021/07/18 13:08:08;;;;;;;2.50;1.60;;;23.90;44.20;;;;;;5015945;28;20073;-69
2021/07/18 13:10:43;;;;;;;1.83;1.35;;;23.90;44.40;;;;;;5015430;28;20393;-67
2021/07/18 13:13:10;;;;;;;;;;;23.90;45.00;;;;;;5015141;28;20026;-67
2021/07/18 13:15:38;;;;;;;2.08;1.52;;;23.80;44.40;;;;;;5019632;28;19944;-67
2021/07/18 13:18:08;;;;;;;4.75;1.80;;;23.80;44.60;;;;;;5015093;28;20045;-68
2021/07/18 13:20:37;;;;;;;8.02;5.72;;;23.80;45.30;;;;;;5014972;28;20018;-67
2021/07/18 13:23:09;;;;;;;4.45;2.15;;;23.80;45.40;;;;;;5011883;28;20022;-69
2021/07/18 13:25:43;;;;;;;2.83;1.70;;;23.80;45.70;;;;;;5017757;28;20029;-70
2021/07/18 13:28:13;;;;;;;2.85;1.50;;;23.80;46.40;;;;;;5014070;28;20026;-68
2021/07/18 13:30:43;;;;;;;2.08;1.77;;;23.80;46.10;;;;;;5015594;28;20017;-69
2021/07/18 13:33:14;;;;;;;5.43;1.98;;;23.80;46.50;;;;;;5011858;28;20029;-66
2021/07/18 13:35:49;;;;;;;6.65;5.10;;;23.80;46.40;;;;;;5012450;28;20377;-67